createdAt,value
2023-05-08T00:01:59.803Z,3.00
2023-05-08T00:07:01.712Z,4.90
2023-05-08T00:12:03.642Z,4.00
2023-05-08T00:17:05.741Z,3.80
2023-05-08T00:22:08.059Z,4.30
2023-05-08T00:27:09.853Z,5.50
2023-05-08T00:32:12.082Z,4.40
2023-05-08T00:37:32.701Z,3.20
2023-05-08T00:42:34.621Z,3.50
2023-05-08T00:47:36.748Z,3.40
2023-05-08T00:52:39.350Z,3.90
2023-05-08T00:57:41.300Z,3.10
2023-05-08T01:02:43.773Z,3.20
2023-05-08T01:07:45.625Z,2.50
2023-05-08T01:13:07.686Z,2.00
2023-05-08T01:18:42.741Z,1.90
2023-05-08T01:24:36.695Z,2.90
2023-05-08T01:30:11.536Z,2.70
2023-05-08T01:35:41.220Z,2.90
2023-05-08T01:41:08.998Z,2.60
2023-05-08T01:46:16.918Z,2.70
2023-05-08T01:51:23.009Z,4.30
2023-05-08T01:56:29.130Z,2.40
2023-05-08T02:01:33.415Z,2.00
2023-05-08T02:06:37.408Z,2.40
2023-05-08T02:11:46.096Z,1.90
2023-05-08T02:16:54.954Z,1.70
2023-05-08T02:22:00.604Z,1.60
2023-05-08T02:27:02.812Z,1.70
2023-05-08T02:32:06.697Z,1.50
2023-05-08T02:37:10.474Z,1.90
2023-05-08T02:42:12.827Z,2.00
2023-05-08T02:47:29.756Z,2.50
2023-05-08T02:53:03.384Z,2.60
2023-05-08T02:58:08.293Z,2.30
2023-05-08T03:03:21.159Z,2.30
2023-05-08T03:08:28.349Z,2.60
2023-05-08T03:13:34.563Z,3.00
2023-05-08T03:18:54.927Z,2.10
2023-05-08T03:24:00.738Z,2.70
2023-05-08T03:29:03.015Z,2.50
2023-05-08T03:34:09.707Z,2.80
2023-05-08T03:39:12.216Z,2.50
2023-05-08T03:44:16.561Z,2.80
2023-05-08T03:49:20.044Z,2.90
2023-05-08T03:54:25.413Z,2.10
2023-05-08T03:59:33.346Z,1.90
2023-05-08T04:04:40.892Z,2.60
2023-05-08T04:09:58.358Z,2.90
2023-05-08T04:15:09.286Z,2.40
2023-05-08T04:20:17.152Z,3.10
2023-05-08T04:25:21.379Z,2.10
2023-05-08T04:30:24.668Z,2.10
2023-05-08T04:35:26.791Z,2.30
2023-05-08T04:40:29.489Z,2.60
2023-05-08T04:45:31.750Z,2.80
2023-05-08T04:50:33.663Z,2.40
2023-05-08T04:55:35.590Z,2.10
2023-05-08T05:00:37.525Z,2.90
2023-05-08T05:05:39.534Z,32.30
2023-05-08T05:10:41.558Z,2.30
2023-05-08T05:15:43.536Z,2.00
2023-05-08T05:20:46.311Z,3.10
2023-05-08T05:25:48.579Z,2.90
2023-05-08T05:30:50.344Z,2.90
2023-05-08T05:35:52.434Z,4.70
2023-05-08T05:40:54.349Z,11.00
2023-05-08T05:45:56.284Z,3.40
2023-05-08T05:50:59.578Z,2.70
2023-05-08T05:56:01.343Z,2.60
2023-05-08T06:01:04.680Z,2.60
2023-05-08T06:06:06.931Z,2.10
2023-05-08T06:11:08.825Z,2.10
2023-05-08T06:16:10.637Z,2.10
2023-05-08T06:21:12.360Z,2.10
2023-05-08T06:26:29.896Z,2.10
2023-05-08T06:31:34.643Z,2.50
2023-05-08T06:36:36.676Z,2.30
2023-05-08T06:41:38.477Z,2.30
2023-05-08T06:46:40.663Z,3.00
2023-05-08T06:51:42.546Z,2.00
2023-05-08T06:56:44.438Z,1.90
2023-05-08T07:01:46.332Z,3.20
2023-05-08T07:06:48.161Z,2.70
2023-05-08T07:11:49.880Z,2.90
2023-05-08T07:16:51.583Z,3.10
2023-05-08T07:21:53.314Z,3.80
2023-05-08T07:26:55.291Z,3.20
2023-05-08T07:31:57.122Z,4.70
2023-05-08T07:36:58.994Z,3.40
2023-05-08T07:42:01.605Z,2.80
2023-05-08T07:47:03.853Z,2.90
2023-05-08T07:52:05.832Z,2.90
2023-05-08T07:57:07.587Z,3.30
2023-05-08T08:02:09.548Z,3.50
2023-05-08T08:07:11.438Z,2.50
2023-05-08T08:12:13.122Z,2.70
2023-05-08T08:17:14.862Z,2.40
2023-05-08T08:22:16.705Z,2.10
2023-05-08T08:27:18.387Z,2.40
2023-05-08T08:32:20.075Z,2.20
2023-05-08T08:37:22.179Z,5.10
2023-05-08T08:42:24.234Z,2.10
2023-05-08T08:47:29.915Z,2.40
2023-05-08T08:52:54.527Z,2.80
2023-05-08T08:58:26.708Z,2.80
2023-05-08T09:03:28.620Z,2.00
2023-05-08T09:08:30.887Z,3.90
2023-05-08T09:13:32.653Z,2.40
2023-05-08T09:18:34.378Z,2.70
2023-05-08T09:23:36.737Z,3.60
2023-05-08T09:28:38.500Z,3.30
2023-05-08T09:33:44.753Z,3.30
2023-05-08T09:38:46.497Z,3.00
2023-05-08T09:44:01.621Z,2.40
2023-05-08T09:49:04.477Z,2.60
2023-05-08T09:54:17.897Z,3.40
2023-05-08T09:59:27.982Z,2.50
2023-05-08T10:04:34.222Z,2.10
2023-05-08T10:09:49.678Z,2.90
2023-05-08T10:14:52.394Z,2.70
2023-05-08T10:20:00.068Z,3.10
2023-05-08T10:25:06.626Z,3.50
2023-05-08T10:30:10.000Z,2.20
2023-05-08T10:35:12.437Z,3.70
2023-05-08T10:40:18.711Z,3.10
2023-05-08T10:45:20.734Z,3.60
2023-05-08T10:50:33.715Z,2.70
2023-05-08T10:55:41.357Z,2.60
2023-05-08T11:01:09.414Z,2.70
2023-05-08T11:06:13.619Z,2.60
2023-05-08T11:11:24.720Z,2.40
2023-05-08T11:16:54.800Z,2.30
2023-05-08T11:22:23.916Z,3.00
2023-05-08T11:27:34.999Z,2.30
2023-05-08T11:32:56.116Z,2.10
2023-05-08T11:38:17.255Z,3.10
2023-05-08T11:43:29.311Z,2.50
2023-05-08T11:48:32.800Z,2.00
2023-05-08T11:53:36.505Z,2.50
2023-05-08T11:58:40.745Z,2.30
2023-05-08T12:04:02.152Z,2.00
2023-05-08T12:09:13.127Z,2.60
2023-05-08T12:14:18.254Z,2.10
2023-05-08T12:19:20.570Z,2.30
2023-05-08T12:24:23.733Z,2.30
2023-05-08T12:34:30.403Z,1.80
2023-05-08T12:39:37.523Z,2.40
2023-05-08T12:44:39.327Z,2.00
2023-05-08T12:49:41.055Z,1.80
2023-05-08T12:54:49.513Z,1.80
2023-05-08T12:59:51.369Z,2.40
2023-05-08T13:04:56.569Z,2.30
2023-05-08T13:10:05.514Z,1.90
2023-05-08T13:15:08.233Z,2.30
2023-05-08T13:20:11.383Z,2.50
2023-05-08T13:25:13.719Z,2.70
2023-05-08T13:30:16.687Z,2.40
2023-05-08T13:35:19.514Z,1.70
2023-05-08T13:40:21.546Z,2.10
2023-05-08T13:45:23.482Z,1.50
2023-05-08T13:50:25.399Z,2.20
2023-05-08T13:55:27.247Z,2.20
2023-05-08T14:00:29.040Z,2.10
2023-05-08T14:05:30.823Z,1.80
2023-05-08T14:10:32.617Z,2.20
2023-05-08T14:15:37.398Z,1.40
2023-05-08T14:20:39.566Z,1.90
2023-05-08T14:25:41.294Z,1.90
2023-05-08T14:30:42.963Z,2.50
2023-05-08T14:35:45.956Z,1.70
2023-05-08T14:40:51.099Z,1.70
2023-05-08T14:45:52.939Z,2.70
2023-05-08T14:50:54.796Z,2.00
2023-05-08T14:55:56.872Z,1.80
2023-05-08T15:00:58.864Z,1.50
2023-05-08T15:06:01.198Z,2.00
2023-05-08T15:11:02.888Z,2.00
2023-05-08T15:16:05.585Z,2.60
2023-05-08T15:21:07.406Z,2.70
2023-05-08T15:26:09.184Z,1.50
2023-05-08T15:31:10.831Z,2.20
2023-05-08T15:36:13.677Z,2.00
2023-05-08T15:41:15.743Z,1.50
2023-05-08T15:46:17.748Z,2.00
2023-05-08T15:51:19.810Z,1.70
2023-05-08T15:56:24.465Z,1.90
2023-05-08T16:01:26.233Z,2.20
2023-05-08T16:06:28.544Z,2.70
2023-05-08T16:11:33.769Z,2.00
2023-05-08T16:16:35.707Z,2.20
2023-05-08T16:21:37.552Z,2.80
2023-05-08T16:26:39.243Z,3.00
2023-05-08T16:31:40.938Z,3.60
2023-05-08T16:36:42.674Z,4.00
2023-05-08T16:41:44.555Z,5.30
2023-05-08T16:46:54.282Z,3.10
2023-05-08T16:56:58.071Z,4.50
2023-05-08T17:01:59.963Z,4.80
2023-05-08T17:07:01.822Z,3.80
2023-05-08T17:12:03.812Z,3.00
2023-05-08T17:17:06.269Z,3.90
2023-05-08T17:22:08.011Z,3.10
2023-05-08T17:27:09.909Z,4.20
2023-05-08T17:32:11.802Z,3.30
2023-05-08T17:37:13.749Z,5.10
2023-05-08T17:42:15.957Z,4.80
2023-05-08T17:47:17.974Z,4.90
2023-05-08T17:52:19.649Z,3.60
2023-05-08T17:57:21.444Z,4.50
2023-05-08T18:02:23.224Z,5.60
2023-05-08T18:07:25.315Z,6.40
2023-05-08T18:12:27.017Z,3.90
2023-05-08T18:17:29.794Z,5.30
2023-05-08T18:22:31.610Z,3.90
2023-05-08T18:27:36.269Z,7.40
2023-05-08T18:32:37.968Z,7.50
2023-05-08T18:37:39.699Z,6.20
2023-05-08T18:42:41.393Z,6.50
2023-05-08T18:47:43.132Z,7.60
2023-05-08T18:52:45.071Z,7.40
2023-05-08T18:57:46.785Z,8.50
2023-05-08T19:02:48.526Z,8.60
2023-05-08T19:07:50.480Z,7.50
2023-05-08T19:12:52.196Z,7.20
2023-05-08T19:17:54.027Z,6.70
2023-05-08T19:22:55.784Z,8.00
2023-05-08T19:27:58.739Z,7.80
2023-05-08T19:33:00.413Z,8.40
2023-05-08T19:38:02.134Z,7.80
2023-05-08T19:43:04.195Z,9.50
2023-05-08T19:48:10.562Z,13.40
2023-05-08T19:53:17.980Z,10.40
2023-05-08T19:58:19.712Z,9.30
2023-05-08T20:03:21.528Z,9.50
2023-05-08T20:08:23.517Z,11.80
2023-05-08T20:13:25.435Z,23.90
2023-05-08T20:18:27.269Z,30.80
2023-05-08T20:23:29.029Z,24.30
2023-05-08T20:28:31.129Z,24.10
2023-05-08T20:33:32.854Z,18.00
2023-05-08T20:38:36.550Z,15.20
2023-05-08T20:43:38.580Z,16.50
2023-05-08T20:48:40.395Z,18.10
2023-05-08T20:53:42.141Z,18.20
2023-05-08T20:58:43.806Z,22.00
2023-05-08T21:03:45.551Z,26.60
2023-05-08T21:08:48.231Z,33.30
2023-05-08T21:13:55.434Z,29.20
2023-05-08T21:18:58.327Z,26.70
2023-05-08T21:24:00.379Z,25.10
2023-05-08T21:29:04.283Z,22.70
2023-05-08T21:34:07.293Z,20.80
2023-05-08T21:39:10.818Z,15.60
2023-05-08T21:44:15.718Z,17.60
2023-05-08T21:49:19.764Z,26.50
2023-05-08T21:54:24.172Z,21.20
2023-05-08T22:04:27.971Z,11.20
2023-05-08T22:09:29.724Z,7.50
2023-05-08T22:14:31.454Z,8.20
2023-05-08T22:19:33.270Z,6.80
2023-05-08T22:24:34.985Z,7.60
2023-05-08T22:29:36.629Z,6.10
2023-05-08T22:34:38.642Z,15.70
2023-05-08T22:39:40.408Z,11.90
2023-05-08T22:44:43.527Z,9.50
2023-05-08T22:49:45.212Z,7.40
2023-05-08T22:54:47.059Z,7.60
2023-05-08T22:59:48.907Z,6.80
2023-05-08T23:04:51.051Z,6.20
2023-05-08T23:09:53.830Z,5.80
2023-05-08T23:14:57.992Z,6.90
2023-05-08T23:19:59.781Z,9.70
2023-05-08T23:25:01.509Z,6.70
2023-05-08T23:30:03.634Z,5.50
2023-05-08T23:35:11.638Z,5.90
2023-05-08T23:40:14.366Z,5.10
2023-05-08T23:45:16.542Z,6.80
2023-05-08T23:50:20.906Z,6.40
2023-05-08T23:55:22.637Z,10.60
